sensor_id;sensor_type;location;lat;lon;timestamp;P1;durP1;ratioP1;P2;durP2;ratioP2
18280;SDS011;9266;51.132;17.062;2023-11-21T00:01:19;13.37;;;6.53;;
18280;SDS011;9266;51.132;17.062;2023-11-21T00:03:46;14.57;;;6.60;;
18280;SDS011;9266;51.132;17.062;2023-11-21T00:06:13;11.03;;;6.77;;
18280;SDS011;9266;51.132;17.062;2023-11-21T00:08:40;12.30;;;6.67;;
18280;SDS011;9266;51.132;17.062;2023-11-21T00:11:08;13.23;;;6.87;;
18280;SDS011;9266;51.132;17.062;2023-11-21T00:13:35;12.23;;;7.03;;
18280;SDS011;9266;51.132;17.062;2023-11-21T00:16:03;12.83;;;6.97;;
18280;SDS011;9266;51.132;17.062;2023-11-21T00:18:30;9.47;;;6.33;;
18280;SDS011;9266;51.132;17.062;2023-11-21T00:20:57;10.73;;;7.10;;
18280;SDS011;9266;51.132;17.062;2023-11-21T00:23:24;9.90;;;6.63;;
18280;SDS011;9266;51.132;17.062;2023-11-21T00:25:51;10.67;;;6.80;;
18280;SDS011;9266;51.132;17.062;2023-11-21T00:28:19;11.20;;;6.47;;
18280;SDS011;9266;51.132;17.062;2023-11-21T00:30:47;10.10;;;6.03;;
18280;SDS011;9266;51.132;17.062;2023-11-21T00:33:14;9.07;;;5.33;;
18280;SDS011;9266;51.132;17.062;2023-11-21T00:35:41;8.87;;;5.83;;
18280;SDS011;9266;51.132;17.062;2023-11-21T00:38:08;10.03;;;6.40;;
18280;SDS011;9266;51.132;17.062;2023-11-21T00:40:35;9.30;;;5.73;;
18280;SDS011;9266;51.132;17.062;2023-11-21T00:43:02;11.20;;;5.80;;
18280;SDS011;9266;51.132;17.062;2023-11-21T00:45:31;11.37;;;5.97;;
18280;SDS011;9266;51.132;17.062;2023-11-21T00:47:58;10.27;;;6.47;;
18280;SDS011;9266;51.132;17.062;2023-11-21T00:50:25;10.53;;;6.23;;
18280;SDS011;9266;51.132;17.062;2023-11-21T00:52:52;9.60;;;5.87;;
18280;SDS011;9266;51.132;17.062;2023-11-21T00:55:19;13.00;;;5.90;;
18280;SDS011;9266;51.132;17.062;2023-11-21T00:57:46;12.90;;;6.60;;
18280;SDS011;9266;51.132;17.062;2023-11-21T01:00:13;10.23;;;6.27;;
18280;SDS011;9266;51.132;17.062;2023-11-21T01:02:43;9.60;;;6.13;;
18280;SDS011;9266;51.132;17.062;2023-11-21T01:05:10;12.80;;;6.40;;
18280;SDS011;9266;51.132;17.062;2023-11-21T01:07:37;10.03;;;6.17;;
18280;SDS011;9266;51.132;17.062;2023-11-21T01:10:04;11.63;;;6.43;;
18280;SDS011;9266;51.132;17.062;2023-11-21T01:12:33;10.87;;;6.10;;
18280;SDS011;9266;51.132;17.062;2023-11-21T01:15:01;10.37;;;6.40;;
18280;SDS011;9266;51.132;17.062;2023-11-21T01:17:28;9.63;;;5.93;;
18280;SDS011;9266;51.132;17.062;2023-11-21T01:19:56;8.80;;;6.30;;
18280;SDS011;9266;51.132;17.062;2023-11-21T01:22:24;11.67;;;6.33;;
18280;SDS011;9266;51.132;17.062;2023-11-21T01:24:51;13.63;;;6.07;;
18280;SDS011;9266;51.132;17.062;2023-11-21T01:27:18;12.37;;;6.17;;
18280;SDS011;9266;51.132;17.062;2023-11-21T01:29:45;13.00;;;6.97;;
18280;SDS011;9266;51.132;17.062;2023-11-21T01:32:12;9.20;;;5.80;;
18280;SDS011;9266;51.132;17.062;2023-11-21T01:34:39;11.63;;;6.40;;
18280;SDS011;9266;51.132;17.062;2023-11-21T01:37:07;10.37;;;6.17;;
18280;SDS011;9266;51.132;17.062;2023-11-21T01:39:37;10.50;;;6.13;;
18280;SDS011;9266;51.132;17.062;2023-11-21T01:42:04;8.27;;;6.20;;
18280;SDS011;9266;51.132;17.062;2023-11-21T01:44:32;11.67;;;5.73;;
18280;SDS011;9266;51.132;17.062;2023-11-21T01:46:59;9.53;;;5.93;;
18280;SDS011;9266;51.132;17.062;2023-11-21T01:49:30;9.27;;;5.97;;
18280;SDS011;9266;51.132;17.062;2023-11-21T01:51:57;15.83;;;7.30;;
18280;SDS011;9266;51.132;17.062;2023-11-21T01:54:26;11.27;;;6.87;;
18280;SDS011;9266;51.132;17.062;2023-11-21T01:56:56;10.67;;;6.60;;
18280;SDS011;9266;51.132;17.062;2023-11-21T01:59:28;16.57;;;6.90;;
18280;SDS011;9266;51.132;17.062;2023-11-21T02:01:59;11.03;;;6.57;;
18280;SDS011;9266;51.132;17.062;2023-11-21T02:04:25;11.00;;;6.57;;
18280;SDS011;9266;51.132;17.062;2023-11-21T02:06:52;9.80;;;6.70;;
18280;SDS011;9266;51.132;17.062;2023-11-21T02:09:22;9.87;;;6.67;;
18280;SDS011;9266;51.132;17.062;2023-11-21T02:11:53;10.10;;;6.03;;
18280;SDS011;9266;51.132;17.062;2023-11-21T02:14:20;13.90;;;8.00;;
18280;SDS011;9266;51.132;17.062;2023-11-21T02:16:47;15.07;;;6.97;;
18280;SDS011;9266;51.132;17.062;2023-11-21T02:19:17;10.40;;;7.07;;
18280;SDS011;9266;51.132;17.062;2023-11-21T02:21:48;11.47;;;7.10;;
18280;SDS011;9266;51.132;17.062;2023-11-21T02:24:18;13.67;;;7.23;;
18280;SDS011;9266;51.132;17.062;2023-11-21T02:26:46;11.17;;;6.90;;
18280;SDS011;9266;51.132;17.062;2023-11-21T02:29:13;11.17;;;7.03;;
18280;SDS011;9266;51.132;17.062;2023-11-21T02:31:43;14.17;;;7.50;;
18280;SDS011;9266;51.132;17.062;2023-11-21T02:34:14;14.20;;;6.97;;
18280;SDS011;9266;51.132;17.062;2023-11-21T02:36:41;15.53;;;7.97;;
18280;SDS011;9266;51.132;17.062;2023-11-21T02:39:08;12.87;;;7.47;;
18280;SDS011;9266;51.132;17.062;2023-11-21T02:41:37;14.40;;;7.10;;
18280;SDS011;9266;51.132;17.062;2023-11-21T02:44:04;13.17;;;7.03;;
18280;SDS011;9266;51.132;17.062;2023-11-21T02:46:32;10.93;;;7.70;;
18280;SDS011;9266;51.132;17.062;2023-11-21T02:49:00;10.07;;;7.03;;
18280;SDS011;9266;51.132;17.062;2023-11-21T02:51:27;11.47;;;7.30;;
18280;SDS011;9266;51.132;17.062;2023-11-21T02:53:54;14.00;;;7.97;;
18280;SDS011;9266;51.132;17.062;2023-11-21T02:56:23;11.00;;;6.83;;
18280;SDS011;9266;51.132;17.062;2023-11-21T02:58:55;20.47;;;9.27;;
18280;SDS011;9266;51.132;17.062;2023-11-21T03:01:22;16.70;;;9.30;;
18280;SDS011;9266;51.132;17.062;2023-11-21T03:03:50;13.73;;;7.70;;
18280;SDS011;9266;51.132;17.062;2023-11-21T03:06:17;12.77;;;8.13;;
18280;SDS011;9266;51.132;17.062;2023-11-21T03:08:44;14.60;;;8.13;;
18280;SDS011;9266;51.132;17.062;2023-11-21T03:11:11;15.00;;;9.30;;
18280;SDS011;9266;51.132;17.062;2023-11-21T03:13:39;14.07;;;8.80;;
18280;SDS011;9266;51.132;17.062;2023-11-21T03:16:08;17.47;;;8.77;;
18280;SDS011;9266;51.132;17.062;2023-11-21T03:18:35;14.77;;;9.10;;
18280;SDS011;9266;51.132;17.062;2023-11-21T03:21:02;15.07;;;9.37;;
18280;SDS011;9266;51.132;17.062;2023-11-21T03:23:29;14.30;;;9.23;;
18280;SDS011;9266;51.132;17.062;2023-11-21T03:25:56;14.50;;;8.90;;
18280;SDS011;9266;51.132;17.062;2023-11-21T03:28:24;14.87;;;9.30;;
18280;SDS011;9266;51.132;17.062;2023-11-21T03:30:51;16.20;;;9.30;;
18280;SDS011;9266;51.132;17.062;2023-11-21T03:33:20;16.90;;;9.10;;
18280;SDS011;9266;51.132;17.062;2023-11-21T03:35:47;15.87;;;8.93;;
18280;SDS011;9266;51.132;17.062;2023-11-21T03:38:14;17.43;;;9.23;;
18280;SDS011;9266;51.132;17.062;2023-11-21T03:40:42;18.13;;;10.27;;
18280;SDS011;9266;51.132;17.062;2023-11-21T03:43:09;16.30;;;8.73;;
18280;SDS011;9266;51.132;17.062;2023-11-21T03:45:36;14.93;;;8.43;;
18280;SDS011;9266;51.132;17.062;2023-11-21T03:48:05;15.40;;;9.77;;
18280;SDS011;9266;51.132;17.062;2023-11-21T03:50:33;14.77;;;9.17;;
18280;SDS011;9266;51.132;17.062;2023-11-21T03:53:00;16.57;;;9.57;;
18280;SDS011;9266;51.132;17.062;2023-11-21T03:55:27;17.70;;;9.40;;
18280;SDS011;9266;51.132;17.062;2023-11-21T03:57:56;14.40;;;9.60;;
18280;SDS011;9266;51.132;17.062;2023-11-21T04:00:23;16.07;;;9.70;;
18280;SDS011;9266;51.132;17.062;2023-11-21T04:02:51;16.23;;;9.57;;
18280;SDS011;9266;51.132;17.062;2023-11-21T04:05:19;14.87;;;9.30;;
18280;SDS011;9266;51.132;17.062;2023-11-21T04:07:48;17.37;;;10.70;;
18280;SDS011;9266;51.132;17.062;2023-11-21T04:10:15;17.10;;;9.40;;
18280;SDS011;9266;51.132;17.062;2023-11-21T04:12:42;15.90;;;9.70;;
18280;SDS011;9266;51.132;17.062;2023-11-21T04:15:10;14.50;;;8.87;;
18280;SDS011;9266;51.132;17.062;2023-11-21T04:17:38;16.80;;;9.73;;
18280;SDS011;9266;51.132;17.062;2023-11-21T04:20:05;14.03;;;9.10;;
18280;SDS011;9266;51.132;17.062;2023-11-21T04:22:35;15.73;;;9.13;;
18280;SDS011;9266;51.132;17.062;2023-11-21T04:25:07;12.87;;;8.13;;
18280;SDS011;9266;51.132;17.062;2023-11-21T04:27:34;16.83;;;10.67;;
18280;SDS011;9266;51.132;17.062;2023-11-21T04:30:01;17.63;;;10.37;;
18280;SDS011;9266;51.132;17.062;2023-11-21T04:32:28;14.40;;;9.77;;
18280;SDS011;9266;51.132;17.062;2023-11-21T04:34:55;11.87;;;8.80;;
18280;SDS011;9266;51.132;17.062;2023-11-21T04:37:24;14.77;;;8.97;;
18280;SDS011;9266;51.132;17.062;2023-11-21T04:39:51;12.50;;;8.80;;
18280;SDS011;9266;51.132;17.062;2023-11-21T04:42:20;13.57;;;8.97;;
18280;SDS011;9266;51.132;17.062;2023-11-21T04:44:46;14.23;;;8.43;;
18280;SDS011;9266;51.132;17.062;2023-11-21T04:47:13;15.10;;;9.30;;
18280;SDS011;9266;51.132;17.062;2023-11-21T04:49:41;10.17;;;7.53;;
18280;SDS011;9266;51.132;17.062;2023-11-21T04:52:08;11.20;;;6.93;;
18280;SDS011;9266;51.132;17.062;2023-11-21T04:54:35;12.13;;;7.37;;
18280;SDS011;9266;51.132;17.062;2023-11-21T04:57:02;9.47;;;6.43;;
18280;SDS011;9266;51.132;17.062;2023-11-21T04:59:33;8.50;;;6.00;;
18280;SDS011;9266;51.132;17.062;2023-11-21T05:02:00;11.40;;;6.33;;
18280;SDS011;9266;51.132;17.062;2023-11-21T05:04:28;10.63;;;6.67;;
18280;SDS011;9266;51.132;17.062;2023-11-21T05:06:55;11.07;;;7.50;;
18280;SDS011;9266;51.132;17.062;2023-11-21T05:09:22;11.73;;;7.07;;
18280;SDS011;9266;51.132;17.062;2023-11-21T05:11:49;11.30;;;7.77;;
18280;SDS011;9266;51.132;17.062;2023-11-21T05:14:15;11.57;;;7.40;;
18280;SDS011;9266;51.132;17.062;2023-11-21T05:16:45;12.80;;;8.73;;
18280;SDS011;9266;51.132;17.062;2023-11-21T05:19:12;12.57;;;8.17;;
18280;SDS011;9266;51.132;17.062;2023-11-21T05:21:39;13.40;;;9.27;;
18280;SDS011;9266;51.132;17.062;2023-11-21T05:24:06;14.27;;;8.30;;
18280;SDS011;9266;51.132;17.062;2023-11-21T05:26:34;13.33;;;8.40;;
18280;SDS011;9266;51.132;17.062;2023-11-21T05:29:01;13.60;;;9.13;;
18280;SDS011;9266;51.132;17.062;2023-11-21T05:31:28;15.73;;;10.17;;
18280;SDS011;9266;51.132;17.062;2023-11-21T05:33:56;15.13;;;9.83;;
18280;SDS011;9266;51.132;17.062;2023-11-21T05:36:23;13.93;;;9.83;;
18280;SDS011;9266;51.132;17.062;2023-11-21T05:38:50;14.30;;;9.83;;
18280;SDS011;9266;51.132;17.062;2023-11-21T05:41:17;17.20;;;11.00;;
18280;SDS011;9266;51.132;17.062;2023-11-21T05:43:44;15.87;;;10.27;;
18280;SDS011;9266;51.132;17.062;2023-11-21T05:46:11;14.87;;;10.30;;
18280;SDS011;9266;51.132;17.062;2023-11-21T05:48:38;13.70;;;9.70;;
18280;SDS011;9266;51.132;17.062;2023-11-21T05:51:07;15.77;;;10.57;;
18280;SDS011;9266;51.132;17.062;2023-11-21T05:53:34;16.73;;;9.67;;
18280;SDS011;9266;51.132;17.062;2023-11-21T05:56:01;17.53;;;11.07;;
18280;SDS011;9266;51.132;17.062;2023-11-21T05:58:29;15.03;;;9.77;;
18280;SDS011;9266;51.132;17.062;2023-11-21T06:00:56;15.77;;;10.67;;
18280;SDS011;9266;51.132;17.062;2023-11-21T06:03:22;16.23;;;10.40;;
18280;SDS011;9266;51.132;17.062;2023-11-21T06:05:50;16.63;;;10.30;;
18280;SDS011;9266;51.132;17.062;2023-11-21T06:08:18;15.70;;;10.33;;
18280;SDS011;9266;51.132;17.062;2023-11-21T06:10:45;16.07;;;10.73;;
18280;SDS011;9266;51.132;17.062;2023-11-21T06:13:14;14.00;;;10.87;;
18280;SDS011;9266;51.132;17.062;2023-11-21T06:15:41;18.47;;;10.83;;
18280;SDS011;9266;51.132;17.062;2023-11-21T06:18:08;18.30;;;10.73;;
18280;SDS011;9266;51.132;17.062;2023-11-21T06:20:36;23.87;;;12.53;;
18280;SDS011;9266;51.132;17.062;2023-11-21T06:23:03;18.77;;;11.67;;
18280;SDS011;9266;51.132;17.062;2023-11-21T06:25:32;17.63;;;11.53;;
18280;SDS011;9266;51.132;17.062;2023-11-21T06:28:01;18.50;;;11.47;;
18280;SDS011;9266;51.132;17.062;2023-11-21T06:30:28;18.37;;;11.50;;
18280;SDS011;9266;51.132;17.062;2023-11-21T06:32:55;17.67;;;11.43;;
18280;SDS011;9266;51.132;17.062;2023-11-21T06:35:22;19.87;;;11.03;;
18280;SDS011;9266;51.132;17.062;2023-11-21T06:37:49;17.70;;;11.43;;
18280;SDS011;9266;51.132;17.062;2023-11-21T06:40:17;18.43;;;10.90;;
18280;SDS011;9266;51.132;17.062;2023-11-21T06:42:46;15.37;;;11.20;;
18280;SDS011;9266;51.132;17.062;2023-11-21T06:45:13;19.60;;;11.10;;
18280;SDS011;9266;51.132;17.062;2023-11-21T06:47:40;15.87;;;10.47;;
18280;SDS011;9266;51.132;17.062;2023-11-21T06:50:07;18.90;;;12.40;;
18280;SDS011;9266;51.132;17.062;2023-11-21T06:52:35;22.83;;;11.80;;
18280;SDS011;9266;51.132;17.062;2023-11-21T06:55:01;15.23;;;10.73;;
18280;SDS011;9266;51.132;17.062;2023-11-21T06:57:29;16.13;;;11.13;;
18280;SDS011;9266;51.132;17.062;2023-11-21T06:59:58;16.03;;;10.40;;
18280;SDS011;9266;51.132;17.062;2023-11-21T07:02:26;20.07;;;13.00;;
18280;SDS011;9266;51.132;17.062;2023-11-21T07:04:53;23.57;;;11.43;;
18280;SDS011;9266;51.132;17.062;2023-11-21T07:07:20;14.80;;;9.87;;
18280;SDS011;9266;51.132;17.062;2023-11-21T07:09:47;16.23;;;10.50;;
18280;SDS011;9266;51.132;17.062;2023-11-21T07:12:14;17.07;;;11.13;;
18280;SDS011;9266;51.132;17.062;2023-11-21T07:14:41;20.17;;;10.83;;
18280;SDS011;9266;51.132;17.062;2023-11-21T07:17:11;16.27;;;10.60;;
18280;SDS011;9266;51.132;17.062;2023-11-21T07:19:38;21.17;;;12.57;;
18280;SDS011;9266;51.132;17.062;2023-11-21T07:22:06;17.27;;;12.27;;
18280;SDS011;9266;51.132;17.062;2023-11-21T07:24:34;17.53;;;11.40;;
18280;SDS011;9266;51.132;17.062;2023-11-21T07:27:01;19.57;;;12.17;;
18280;SDS011;9266;51.132;17.062;2023-11-21T07:29:29;20.47;;;11.80;;
18280;SDS011;9266;51.132;17.062;2023-11-21T07:31:56;23.33;;;12.47;;
18280;SDS011;9266;51.132;17.062;2023-11-21T07:34:24;19.83;;;12.23;;
18280;SDS011;9266;51.132;17.062;2023-11-21T07:36:51;19.63;;;12.03;;
18280;SDS011;9266;51.132;17.062;2023-11-21T07:39:18;16.30;;;11.87;;
18280;SDS011;9266;51.132;17.062;2023-11-21T07:41:46;18.90;;;12.80;;
18280;SDS011;9266;51.132;17.062;2023-11-21T07:44:15;22.43;;;12.60;;
18280;SDS011;9266;51.132;17.062;2023-11-21T07:46:43;19.97;;;13.13;;
18280;SDS011;9266;51.132;17.062;2023-11-21T07:49:10;18.00;;;12.83;;
18280;SDS011;9266;51.132;17.062;2023-11-21T07:51:41;17.60;;;13.10;;
18280;SDS011;9266;51.132;17.062;2023-11-21T07:54:08;19.83;;;13.87;;
18280;SDS011;9266;51.132;17.062;2023-11-21T07:56:36;16.50;;;12.73;;
18280;SDS011;9266;51.132;17.062;2023-11-21T07:59:03;20.23;;;12.83;;
18280;SDS011;9266;51.132;17.062;2023-11-21T08:01:30;19.00;;;13.30;;
18280;SDS011;9266;51.132;17.062;2023-11-21T08:03:57;16.00;;;11.90;;
18280;SDS011;9266;51.132;17.062;2023-11-21T08:06:27;19.00;;;11.57;;
18280;SDS011;9266;51.132;17.062;2023-11-21T08:08:55;16.20;;;11.90;;
18280;SDS011;9266;51.132;17.062;2023-11-21T08:11:22;17.60;;;11.27;;
18280;SDS011;9266;51.132;17.062;2023-11-21T08:13:49;19.13;;;12.93;;
18280;SDS011;9266;51.132;17.062;2023-11-21T08:16:16;22.03;;;12.93;;
18280;SDS011;9266;51.132;17.062;2023-11-21T08:18:43;19.90;;;12.70;;
18280;SDS011;9266;51.132;17.062;2023-11-21T08:21:12;17.47;;;12.37;;
18280;SDS011;9266;51.132;17.062;2023-11-21T08:23:39;16.57;;;12.23;;
18280;SDS011;9266;51.132;17.062;2023-11-21T08:26:07;20.60;;;12.33;;
18280;SDS011;9266;51.132;17.062;2023-11-21T08:28:34;20.37;;;13.10;;
18280;SDS011;9266;51.132;17.062;2023-11-21T08:31:01;17.63;;;11.57;;
18280;SDS011;9266;51.132;17.062;2023-11-21T08:33:29;17.70;;;13.10;;
18280;SDS011;9266;51.132;17.062;2023-11-21T08:35:56;17.30;;;11.80;;
18280;SDS011;9266;51.132;17.062;2023-11-21T08:38:23;18.43;;;12.17;;
18280;SDS011;9266;51.132;17.062;2023-11-21T08:40:50;14.83;;;10.37;;
18280;SDS011;9266;51.132;17.062;2023-11-21T08:43:18;15.27;;;11.93;;
18280;SDS011;9266;51.132;17.062;2023-11-21T08:45:45;22.07;;;11.97;;
18280;SDS011;9266;51.132;17.062;2023-11-21T08:48:12;18.67;;;11.23;;
18280;SDS011;9266;51.132;17.062;2023-11-21T08:50:39;18.30;;;10.27;;
18280;SDS011;9266;51.132;17.062;2023-11-21T08:53:06;16.47;;;10.97;;
18280;SDS011;9266;51.132;17.062;2023-11-21T08:55:33;13.63;;;10.63;;
18280;SDS011;9266;51.132;17.062;2023-11-21T08:58:02;22.80;;;12.57;;
18280;SDS011;9266;51.132;17.062;2023-11-21T09:00:32;15.73;;;11.03;;
18280;SDS011;9266;51.132;17.062;2023-11-21T09:03:00;16.13;;;10.90;;
18280;SDS011;9266;51.132;17.062;2023-11-21T09:05:28;14.03;;;10.47;;
18280;SDS011;9266;51.132;17.062;2023-11-21T09:07:55;18.23;;;11.57;;
18280;SDS011;9266;51.132;17.062;2023-11-21T09:10:22;15.73;;;10.77;;
18280;SDS011;9266;51.132;17.062;2023-11-21T09:12:50;17.10;;;10.70;;
18280;SDS011;9266;51.132;17.062;2023-11-21T09:15:18;15.87;;;11.37;;
18280;SDS011;9266;51.132;17.062;2023-11-21T09:17:46;15.60;;;10.60;;
18280;SDS011;9266;51.132;17.062;2023-11-21T09:20:13;14.77;;;9.70;;
18280;SDS011;9266;51.132;17.062;2023-11-21T09:22:41;12.40;;;9.33;;
18280;SDS011;9266;51.132;17.062;2023-11-21T09:25:09;11.93;;;8.77;;
18280;SDS011;9266;51.132;17.062;2023-11-21T09:27:37;12.30;;;9.00;;
18280;SDS011;9266;51.132;17.062;2023-11-21T09:30:05;12.07;;;8.70;;
18280;SDS011;9266;51.132;17.062;2023-11-21T09:32:35;11.57;;;8.37;;
18280;SDS011;9266;51.132;17.062;2023-11-21T09:35:04;9.37;;;7.17;;
18280;SDS011;9266;51.132;17.062;2023-11-21T09:37:33;12.97;;;8.33;;
18280;SDS011;9266;51.132;17.062;2023-11-21T09:40:01;9.00;;;7.17;;
18280;SDS011;9266;51.132;17.062;2023-11-21T09:42:30;9.97;;;6.73;;
18280;SDS011;9266;51.132;17.062;2023-11-21T09:45:03;8.73;;;6.47;;
18280;SDS011;9266;51.132;17.062;2023-11-21T09:47:32;8.90;;;6.03;;
18280;SDS011;9266;51.132;17.062;2023-11-21T09:50:07;11.20;;;6.73;;
18280;SDS011;9266;51.132;17.062;2023-11-21T09:52:38;9.70;;;7.07;;
18280;SDS011;9266;51.132;17.062;2023-11-21T09:55:13;7.60;;;6.47;;
18280;SDS011;9266;51.132;17.062;2023-11-21T09:57:43;11.40;;;7.27;;
18280;SDS011;9266;51.132;17.062;2023-11-21T10:00:13;10.63;;;7.37;;
18280;SDS011;9266;51.132;17.062;2023-11-21T10:02:43;12.80;;;7.90;;
18280;SDS011;9266;51.132;17.062;2023-11-21T10:05:12;11.53;;;9.07;;
18280;SDS011;9266;51.132;17.062;2023-11-21T10:07:40;12.87;;;10.53;;
18280;SDS011;9266;51.132;17.062;2023-11-21T10:10:10;13.33;;;10.30;;
18280;SDS011;9266;51.132;17.062;2023-11-21T10:12:37;13.87;;;10.27;;
18280;SDS011;9266;51.132;17.062;2023-11-21T10:15:07;11.93;;;9.80;;
18280;SDS011;9266;51.132;17.062;2023-11-21T10:17:37;20.67;;;13.60;;
18280;SDS011;9266;51.132;17.062;2023-11-21T10:20:08;11.80;;;9.03;;
18280;SDS011;9266;51.132;17.062;2023-11-21T10:22:39;10.33;;;8.97;;
18280;SDS011;9266;51.132;17.062;2023-11-21T10:25:07;11.03;;;8.37;;
18280;SDS011;9266;51.132;17.062;2023-11-21T10:27:35;9.10;;;6.27;;
18280;SDS011;9266;51.132;17.062;2023-11-21T10:30:04;23.63;;;16.53;;
18280;SDS011;9266;51.132;17.062;2023-11-21T10:32:32;27.67;;;17.80;;
18280;SDS011;9266;51.132;17.062;2023-11-21T10:34:59;28.43;;;18.50;;
18280;SDS011;9266;51.132;17.062;2023-11-21T10:37:31;30.57;;;21.00;;
18280;SDS011;9266;51.132;17.062;2023-11-21T10:39:59;27.60;;;18.73;;
18280;SDS011;9266;51.132;17.062;2023-11-21T10:42:28;30.17;;;20.57;;
18280;SDS011;9266;51.132;17.062;2023-11-21T10:44:55;27.57;;;18.87;;
18280;SDS011;9266;51.132;17.062;2023-11-21T10:47:22;28.33;;;19.90;;
18280;SDS011;9266;51.132;17.062;2023-11-21T10:49:49;28.03;;;20.10;;
18280;SDS011;9266;51.132;17.062;2023-11-21T10:52:18;23.97;;;17.10;;
18280;SDS011;9266;51.132;17.062;2023-11-21T10:54:45;29.03;;;18.37;;
18280;SDS011;9266;51.132;17.062;2023-11-21T10:57:16;30.53;;;19.53;;
18280;SDS011;9266;51.132;17.062;2023-11-21T10:59:45;29.67;;;20.27;;
18280;SDS011;9266;51.132;17.062;2023-11-21T11:02:18;32.17;;;21.20;;
18280;SDS011;9266;51.132;17.062;2023-11-21T11:04:53;35.40;;;21.33;;
18280;SDS011;9266;51.132;17.062;2023-11-21T11:07:21;35.33;;;22.07;;
18280;SDS011;9266;51.132;17.062;2023-11-21T11:09:52;33.70;;;21.93;;
18280;SDS011;9266;51.132;17.062;2023-11-21T11:12:21;35.93;;;22.87;;
18280;SDS011;9266;51.132;17.062;2023-11-21T11:14:48;34.70;;;21.87;;
18280;SDS011;9266;51.132;17.062;2023-11-21T11:17:15;34.70;;;23.47;;
18280;SDS011;9266;51.132;17.062;2023-11-21T11:19:45;35.97;;;22.73;;
18280;SDS011;9266;51.132;17.062;2023-11-21T11:22:16;34.47;;;22.53;;
18280;SDS011;9266;51.132;17.062;2023-11-21T11:27:57;39.77;;;23.20;;
18280;SDS011;9266;51.132;17.062;2023-11-21T11:30:35;35.33;;;22.63;;
18280;SDS011;9266;51.132;17.062;2023-11-21T11:33:12;38.87;;;23.87;;
18280;SDS011;9266;51.132;17.062;2023-11-21T11:35:59;33.83;;;22.57;;
18280;SDS011;9266;51.132;17.062;2023-11-21T11:38:31;31.80;;;20.37;;
18280;SDS011;9266;51.132;17.062;2023-11-21T11:41:01;47.30;;;28.87;;
18280;SDS011;9266;51.132;17.062;2023-11-21T11:43:31;36.47;;;23.63;;
18280;SDS011;9266;51.132;17.062;2023-11-21T11:46:05;37.20;;;24.53;;
18280;SDS011;9266;51.132;17.062;2023-11-21T11:48:34;44.97;;;28.80;;
18280;SDS011;9266;51.132;17.062;2023-11-21T11:51:04;34.10;;;21.03;;
18280;SDS011;9266;51.132;17.062;2023-11-21T11:53:37;38.83;;;25.67;;
18280;SDS011;9266;51.132;17.062;2023-11-21T11:56:25;37.40;;;22.40;;
18280;SDS011;9266;51.132;17.062;2023-11-21T11:58:55;36.07;;;20.97;;
18280;SDS011;9266;51.132;17.062;2023-11-21T12:01:24;33.37;;;20.13;;
18280;SDS011;9266;51.132;17.062;2023-11-21T12:06:56;35.37;;;22.23;;
18280;SDS011;9266;51.132;17.062;2023-11-21T12:09:25;32.40;;;19.77;;
18280;SDS011;9266;51.132;17.062;2023-11-21T12:11:53;29.50;;;19.07;;
18280;SDS011;9266;51.132;17.062;2023-11-21T12:14:23;28.27;;;19.40;;
18280;SDS011;9266;51.132;17.062;2023-11-21T12:16:50;28.00;;;17.33;;
18280;SDS011;9266;51.132;17.062;2023-11-21T12:19:18;26.43;;;17.80;;
18280;SDS011;9266;51.132;17.062;2023-11-21T12:21:46;24.47;;;16.07;;
18280;SDS011;9266;51.132;17.062;2023-11-21T12:24:14;26.07;;;17.13;;
18280;SDS011;9266;51.132;17.062;2023-11-21T12:26:41;25.23;;;18.73;;
18280;SDS011;9266;51.132;17.062;2023-11-21T12:29:09;25.77;;;18.30;;
18280;SDS011;9266;51.132;17.062;2023-11-21T12:31:37;25.17;;;15.43;;
18280;SDS011;9266;51.132;17.062;2023-11-21T12:34:05;22.77;;;14.97;;
18280;SDS011;9266;51.132;17.062;2023-11-21T12:36:32;27.40;;;19.63;;
18280;SDS011;9266;51.132;17.062;2023-11-21T12:39:00;24.63;;;15.60;;
18280;SDS011;9266;51.132;17.062;2023-11-21T12:41:28;25.93;;;18.40;;
18280;SDS011;9266;51.132;17.062;2023-11-21T12:43:55;24.17;;;16.23;;
18280;SDS011;9266;51.132;17.062;2023-11-21T12:46:22;26.43;;;16.57;;
18280;SDS011;9266;51.132;17.062;2023-11-21T12:48:52;21.40;;;16.37;;
18280;SDS011;9266;51.132;17.062;2023-11-21T12:51:19;24.47;;;15.73;;
18280;SDS011;9266;51.132;17.062;2023-11-21T12:53:47;19.83;;;15.07;;
18280;SDS011;9266;51.132;17.062;2023-11-21T12:56:15;23.10;;;16.23;;
18280;SDS011;9266;51.132;17.062;2023-11-21T12:58:44;20.80;;;15.57;;
18280;SDS011;9266;51.132;17.062;2023-11-21T13:01:12;20.40;;;15.17;;
18280;SDS011;9266;51.132;17.062;2023-11-21T13:03:43;20.87;;;15.27;;
18280;SDS011;9266;51.132;17.062;2023-11-21T13:06:15;18.73;;;14.17;;
18280;SDS011;9266;51.132;17.062;2023-11-21T13:08:43;18.97;;;14.17;;
18280;SDS011;9266;51.132;17.062;2023-11-21T13:11:11;19.50;;;14.80;;
18280;SDS011;9266;51.132;17.062;2023-11-21T13:13:40;19.67;;;14.60;;
18280;SDS011;9266;51.132;17.062;2023-11-21T13:16:08;20.90;;;14.73;;
18280;SDS011;9266;51.132;17.062;2023-11-21T13:18:36;34.50;;;23.67;;
18280;SDS011;9266;51.132;17.062;2023-11-21T13:21:05;25.20;;;19.97;;
18280;SDS011;9266;51.132;17.062;2023-11-21T13:23:40;24.57;;;17.70;;
18280;SDS011;9266;51.132;17.062;2023-11-21T13:26:08;18.80;;;14.63;;
18280;SDS011;9266;51.132;17.062;2023-11-21T13:28:36;20.10;;;13.97;;
18280;SDS011;9266;51.132;17.062;2023-11-21T13:31:05;28.90;;;19.77;;
18280;SDS011;9266;51.132;17.062;2023-11-21T13:33:46;19.07;;;13.23;;
18280;SDS011;9266;51.132;17.062;2023-11-21T13:36:16;20.17;;;13.00;;
18280;SDS011;9266;51.132;17.062;2023-11-21T13:38:49;16.63;;;12.67;;
18280;SDS011;9266;51.132;17.062;2023-11-21T13:41:17;15.50;;;11.60;;
18280;SDS011;9266;51.132;17.062;2023-11-21T13:43:45;16.97;;;12.23;;
18280;SDS011;9266;51.132;17.062;2023-11-21T13:46:18;17.90;;;13.10;;
18280;SDS011;9266;51.132;17.062;2023-11-21T13:48:48;18.27;;;12.60;;
18280;SDS011;9266;51.132;17.062;2023-11-21T13:51:20;17.37;;;12.97;;
18280;SDS011;9266;51.132;17.062;2023-11-21T13:53:57;17.63;;;13.37;;
18280;SDS011;9266;51.132;17.062;2023-11-21T13:56:25;17.30;;;13.03;;
18280;SDS011;9266;51.132;17.062;2023-11-21T13:58:54;16.87;;;12.57;;
18280;SDS011;9266;51.132;17.062;2023-11-21T14:01:22;17.03;;;12.83;;
18280;SDS011;9266;51.132;17.062;2023-11-21T14:04:10;17.63;;;13.17;;
18280;SDS011;9266;51.132;17.062;2023-11-21T14:06:45;16.43;;;12.43;;
18280;SDS011;9266;51.132;17.062;2023-11-21T14:09:15;16.80;;;12.80;;
18280;SDS011;9266;51.132;17.062;2023-11-21T14:11:48;16.63;;;12.20;;
18280;SDS011;9266;51.132;17.062;2023-11-21T14:14:17;18.23;;;13.70;;
18280;SDS011;9266;51.132;17.062;2023-11-21T14:16:44;20.67;;;15.60;;
18280;SDS011;9266;51.132;17.062;2023-11-21T14:19:11;19.13;;;14.43;;
18280;SDS011;9266;51.132;17.062;2023-11-21T14:21:42;18.40;;;14.50;;
18280;SDS011;9266;51.132;17.062;2023-11-21T14:24:09;18.47;;;13.77;;
18280;SDS011;9266;51.132;17.062;2023-11-21T14:26:39;14.27;;;11.67;;
18280;SDS011;9266;51.132;17.062;2023-11-21T14:29:07;16.97;;;14.00;;
18280;SDS011;9266;51.132;17.062;2023-11-21T14:31:37;17.17;;;13.07;;
18280;SDS011;9266;51.132;17.062;2023-11-21T14:34:05;17.10;;;12.60;;
18280;SDS011;9266;51.132;17.062;2023-11-21T14:36:32;16.40;;;13.30;;
18280;SDS011;9266;51.132;17.062;2023-11-21T14:38:59;19.57;;;14.87;;
18280;SDS011;9266;51.132;17.062;2023-11-21T14:41:27;19.07;;;15.43;;